Time;durP1;ratioP1;P1;durP2;ratioP2;P2;SDS_P1;SDS_P2;PMS_P1;PMS_P2;Temp;Humidity;BMP_temperature;BMP_pressure;BME280_temperature;BME280_humidity;BME280_pressure;Samples;Min_cycle;Max_cycle;Signal;HPM_P1;HPM_P2
2023/11/26 00:00:15;;;;;;;0.95;0.95;;;;;;;4.51;100.00;101583.06;10452525;28;20140;-74
2023/11/26 00:05:15;;;;;;;0.50;0.50;;;;;;;4.49;100.00;101582.34;10451915;28;20503;-74
2023/11/26 00:10:15;;;;;;;0.63;0.63;;;;;;;4.61;100.00;101600.84;10450996;28;20037;-74
2023/11/26 00:15:16;;;;;;;0.70;0.70;;;;;;;5.06;100.00;101607.44;10451924;28;20120;-73
2023/11/26 00:20:16;;;;;;;0.60;0.60;;;;;;;5.35;100.00;101597.47;10450775;28;20088;-74
2023/11/26 00:25:17;;;;;;;0.50;0.50;;;;;;;5.41;100.00;101595.19;10451801;28;20492;-74
2023/11/26 00:30:17;;;;;;;0.93;0.93;;;;;;;5.27;100.00;101583.94;10451548;28;20040;-74
2023/11/26 00:35:17;;;;;;;0.50;0.50;;;;;;;5.14;100.00;101580.72;10451662;28;20044;-73
2023/11/26 00:40:24;;;;;;;3.22;3.03;;;;;;;5.01;100.00;101585.53;10449754;28;20037;-73
2023/11/26 00:45:24;;;;;;;3.42;3.22;;;;;;;4.88;100.00;101580.47;10451533;28;20029;-73
2023/11/26 00:50:25;;;;;;;0.80;0.80;;;;;;;4.74;100.00;101583.63;10450282;28;20041;-74
2023/11/26 00:55:25;;;;;;;0.50;0.50;;;;;;;4.69;100.00;101581.38;10450997;28;20164;-73
2023/11/26 01:00:25;;;;;;;0.50;0.50;;;;;;;4.80;100.00;101591.94;10450771;28;20095;-74
2023/11/26 01:05:26;;;;;;;0.52;0.52;;;;;;;4.98;100.00;101596.56;10450669;28;20044;-73
2023/11/26 01:10:27;;;;;;;0.40;0.40;;;;;;;5.10;100.00;101600.78;10449286;28;20065;-73
2023/11/26 01:15:27;;;;;;;1.02;1.02;;;;;;;5.21;100.00;101607.84;10450250;28;20114;-73
2023/11/26 01:20:27;;;;;;;0.50;0.50;;;;;;;5.28;100.00;101604.41;10449071;28;20064;-73
2023/11/26 01:25:28;;;;;;;0.60;0.60;;;;;;;5.30;100.00;101607.81;10450881;28;20443;-73
2023/11/26 01:30:28;;;;;;;0.45;0.45;;;;;;;5.32;100.00;101605.81;10450127;28;20116;-73
2023/11/26 01:35:29;;;;;;;0.50;0.50;;;;;;;5.41;100.00;101608.63;10450956;28;20033;-74
2023/11/26 01:40:35;;;;;;;0.50;0.50;;;;;;;5.48;100.00;101604.34;10450312;28;20037;-74
2023/11/26 01:45:36;;;;;;;0.60;0.60;;;;;;;5.52;100.00;101611.09;10448798;28;20634;-74
2023/11/26 01:50:36;;;;;;;0.60;0.60;;;;;;;5.56;100.00;101604.47;10449367;28;20041;-74
2023/11/26 01:55:37;;;;;;;1.35;1.35;;;;;;;5.49;100.00;101600.69;10451149;28;20520;-73
2023/11/26 02:00:37;;;;;;;1.08;1.08;;;;;;;5.35;100.00;101608.19;10453475;28;20055;-71
2023/11/26 02:05:37;;;;;;;0.50;0.50;;;;;;;5.23;100.00;101601.34;10451852;28;20108;-72
2023/11/26 02:10:38;;;;;;;0.50;0.50;;;;;;;5.10;100.00;101603.47;10453352;28;20033;-73
2023/11/26 02:15:38;;;;;;;0.50;0.50;;;;;;;5.02;100.00;101606.03;10452594;28;20044;-72
2023/11/26 02:20:39;;;;;;;1.05;1.05;;;;;;;4.89;100.00;101593.75;10452963;28;20087;-72
2023/11/26 02:25:39;;;;;;;0.50;0.50;;;;;;;4.93;100.00;101591.63;10451922;28;20116;-72
2023/11/26 02:30:39;;;;;;;0.50;0.50;;;;;;;4.92;100.00;101594.47;10459122;28;20111;-73
2023/11/26 02:35:40;;;;;;;0.50;0.50;;;;;;;4.88;100.00;101589.41;10459753;28;20049;-73
2023/11/26 02:40:40;;;;;;;0.50;0.50;;;;;;;4.90;100.00;101583.88;10460564;28;20148;-72
2023/11/26 02:45:41;;;;;;;0.60;0.60;;;;;;;4.97;100.00;101584.13;10458759;28;20033;-71
2023/11/26 02:50:42;;;;;;;0.50;0.50;;;;;;;5.02;100.00;101581.88;10461660;28;20040;-72
2023/11/26 02:55:44;;;;;;;4.40;4.00;;;;;;;5.13;100.00;101584.38;10459374;28;20408;-70
2023/11/26 03:00:45;;;;;;;1.40;1.30;;;;;;;5.23;100.00;101595.97;10459215;28;20033;-75
2023/11/26 03:05:50;;;;;;;0.60;0.60;;;;;;;5.25;100.00;101582.38;10460182;28;20445;-73
2023/11/26 03:16:11;;;;;;;0.50;0.50;;;;;;;5.41;100.00;101592.50;10458795;28;20032;-71
2023/11/26 03:21:15;;;;;;;0.50;0.50;;;;;;;5.52;100.00;101582.44;10457981;28;20485;-73
2023/11/26 03:26:16;;;;;;;0.50;0.50;;;;;;;5.69;100.00;101582.63;10457211;28;20084;-72
2023/11/26 03:31:16;;;;;;;0.50;0.50;;;;;;;5.77;100.00;101578.19;10439507;28;20540;-72
2023/11/26 03:36:16;;;;;;;0.50;0.50;;;;;;;5.77;100.00;101580.03;10458299;28;20140;-74
2023/11/26 03:41:18;;;;;;;0.50;0.50;;;;;;;5.75;100.00;101573.97;10455488;28;20473;-74
2023/11/26 03:46:18;;;;;;;0.60;0.60;;;;;;;5.69;100.00;101578.09;10457247;28;20048;-73
2023/11/26 03:51:23;;;;;;;0.52;0.52;;;;;;;5.62;100.00;101585.06;10455967;28;20392;-71
2023/11/26 03:56:24;;;;;;;0.47;0.47;;;;;;;5.54;100.00;101572.38;10456766;28;20491;-73
2023/11/26 04:01:24;;;;;;;0.50;0.50;;;;;;;5.51;100.00;101578.03;10456253;28;20033;-71
2023/11/26 04:06:25;;;;;;;0.40;0.40;;;;;;;5.54;100.00;101574.22;10456139;28;20066;-70
2023/11/26 04:11:25;;;;;;;0.40;0.40;;;;;;;5.56;100.00;101580.28;10457230;28;20037;-72
2023/11/26 04:16:26;;;;;;;0.55;0.55;;;;;;;5.63;100.00;101586.75;10457749;28;20045;-72
2023/11/26 04:21:27;;;;;;;0.50;0.50;;;;;;;5.83;100.00;101582.13;10456525;28;20053;-74
2023/11/26 04:26:27;;;;;;;0.43;0.43;;;;;;;5.95;100.00;101577.44;10458011;28;20144;-73
2023/11/26 04:31:28;;;;;;;0.40;0.40;;;;;;;6.06;100.00;101585.28;10456359;28;20416;-72
2023/11/26 04:36:28;;;;;;;0.40;0.40;;;;;;;6.10;100.00;101588.53;10461460;28;20037;-73
2023/11/26 04:41:28;;;;;;;0.50;0.50;;;;;;;6.08;100.00;101582.44;10458496;28;20029;-73
2023/11/26 04:46:29;;;;;;;0.50;0.50;;;;;;;6.02;100.00;101587.41;10455386;28;20049;-72
2023/11/26 04:51:34;;;;;;;0.40;0.40;;;;;;;5.94;100.00;101584.66;10454529;28;20036;-73
2023/11/26 04:56:38;;;;;;;0.70;0.70;;;;;;;5.83;100.00;101592.88;10453492;28;20033;-72
2023/11/26 05:01:43;;;;;;;0.40;0.40;;;;;;;5.74;100.00;101588.41;10454824;28;20029;-72
2023/11/26 05:06:44;;;;;;;0.60;0.60;;;;;;;5.66;100.00;101583.78;10460001;28;20043;-72
2023/11/26 05:11:44;;;;;;;0.50;0.50;;;;;;;5.66;100.00;101585.63;10456641;28;20092;-72
2023/11/26 05:16:45;;;;;;;0.52;0.52;;;;;;;5.63;100.00;101588.59;10437333;28;20453;-71
2023/11/26 05:21:46;;;;;;;0.50;0.50;;;;;;;5.54;100.00;101583.13;10451783;28;20076;-73
2023/11/26 05:26:47;;;;;;;0.70;0.70;;;;;;;5.42;100.00;101578.06;10452413;28;20128;-73
2023/11/26 05:31:48;;;;;;;0.50;0.50;;;;;;;5.39;100.00;101587.25;10454521;28;20503;-73
2023/11/26 05:36:49;;;;;;;0.50;0.50;;;;;;;5.36;100.00;101593.81;10452155;28;20110;-72
2023/11/26 05:41:50;;;;;;;0.40;0.40;;;;;;;5.39;100.00;101586.44;10453567;28;20051;-73
2023/11/26 05:46:50;;;;;;;0.55;0.55;;;;;;;5.36;100.00;101572.31;10452429;28;20029;-71
2023/11/26 05:51:51;;;;;;;0.52;0.52;;;;;;;5.38;100.00;101590.13;10453148;28;20365;-75
2023/11/26 05:56:51;;;;;;;0.60;0.60;;;;;;;5.31;100.00;101582.63;10452932;28;20061;-73
2023/11/26 06:01:52;;;;;;;0.60;0.60;;;;;;;5.28;100.00;101580.25;10452735;28;20499;-71
2023/11/26 06:06:52;;;;;;;0.50;0.50;;;;;;;5.26;100.00;101579.53;10460148;28;20040;-72
2023/11/26 06:11:52;;;;;;;0.80;0.80;;;;;;;5.31;100.00;101577.28;10461018;28;20037;-73
2023/11/26 06:16:53;;;;;;;1.52;1.52;;;;;;;5.27;100.00;101575.88;10460576;28;20409;-72
2023/11/26 06:21:53;;;;;;;0.40;0.40;;;;;;;5.25;100.00;101580.53;10459137;28;20060;-72
2023/11/26 06:26:54;;;;;;;2.15;2.13;;;;;;;5.40;100.00;101593.50;10458516;28;20051;-74
2023/11/26 06:31:54;;;;;;;0.50;0.50;;;;;;;5.48;100.00;101601.66;10458371;28;20080;-72
2023/11/26 06:36:54;;;;;;;19.58;5.97;;;;;;;5.56;100.00;101599.09;10458511;28;20504;-72
2023/11/26 06:41:55;;;;;;;0.50;0.50;;;;;;;5.70;100.00;101595.06;10460342;28;20032;-72
2023/11/26 06:46:55;;;;;;;0.43;0.43;;;;;;;5.78;100.00;101593.34;10458826;28;20037;-72
2023/11/26 06:51:56;;;;;;;0.55;0.55;;;;;;;5.87;100.00;101590.72;10459136;28;20094;-71
2023/11/26 06:56:56;;;;;;;0.52;0.52;;;;;;;5.88;100.00;101573.63;10458567;28;20041;-73
2023/11/26 07:01:57;;;;;;;0.60;0.60;;;;;;;5.87;100.00;101578.16;10458233;28;20032;-72
2023/11/26 07:06:57;;;;;;;0.50;0.50;;;;;;;5.85;100.00;101587.38;10458902;28;20032;-71
2023/11/26 07:11:58;;;;;;;0.60;0.60;;;;;;;5.83;100.00;101584.81;10458045;28;20346;-73
2023/11/26 07:16:58;;;;;;;0.60;0.60;;;;;;;5.85;100.00;101582.00;10458875;28;20074;-72
2023/11/26 07:21:59;;;;;;;3.53;3.33;;;;;;;5.85;100.00;101588.22;10459906;28;20109;-71
2023/11/26 07:26:59;;;;;;;0.60;0.60;;;;;;;5.86;100.00;101572.94;10458787;28;20104;-73
2023/11/26 07:32:00;;;;;;;1.58;1.48;;;;;;;5.89;100.00;101581.53;10457914;28;20134;-72
2023/11/26 07:37:00;;;;;;;0.52;0.52;;;;;;;5.90;100.00;101582.38;10458372;28;20044;-74
2023/11/26 07:42:00;;;;;;;0.60;0.60;;;;;;;5.89;100.00;101580.69;10439517;28;20492;-73
2023/11/26 07:47:01;;;;;;;0.50;0.50;;;;;;;5.94;100.00;101575.75;10439044;28;20178;-73
2023/11/26 07:52:03;;;;;;;0.60;0.60;;;;;;;5.98;100.00;101586.03;10458197;28;20104;-71
2023/11/26 07:57:04;;;;;;;0.50;0.50;;;;;;;6.03;100.00;101589.13;10456315;28;20449;-72
2023/11/26 08:02:08;;;;;;;0.50;0.50;;;;;;;6.12;100.00;101576.59;10457907;28;20044;-72
2023/11/26 08:07:09;;;;;;;1.15;1.15;;;;;;;6.16;100.00;101588.78;10457554;28;20120;-72
2023/11/26 08:12:13;;;;;;;0.50;0.50;;;;;;;6.24;100.00;101585.31;10456608;28;20445;-71
2023/11/26 08:17:15;;;;;;;0.70;0.70;;;;;;;6.29;100.00;101588.41;10455044;28;20353;-73
2023/11/26 08:22:15;;;;;;;2.60;2.50;;;;;;;6.48;100.00;101598.16;10454660;28;20123;-72
2023/11/26 08:27:17;;;;;;;0.85;0.85;;;;;;;6.57;100.00;101599.06;10454687;28;20384;-71
2023/11/26 08:32:19;;;;;;;15.90;2.67;;;;;;;6.65;100.00;101591.09;10455397;28;20037;-72
2023/11/26 08:37:19;;;;;;;1.25;1.25;;;;;;;6.73;100.00;101578.53;10455048;28;20426;-72
2023/11/26 08:42:20;;;;;;;0.50;0.50;;;;;;;6.94;100.00;101588.97;10438317;28;20029;-71
2023/11/26 08:47:22;;;;;;;0.50;0.50;;;;;;;7.12;100.00;101591.63;10455103;28;20043;-73
2023/11/26 08:52:25;;;;;;;2.55;2.45;;;;;;;7.12;100.00;101591.63;10454416;28;20464;-71
2023/11/26 08:57:26;;;;;;;0.40;0.40;;;;;;;7.10;100.00;101587.38;10454623;28;20041;-72
2023/11/26 09:02:26;;;;;;;0.88;0.88;;;;;;;7.18;100.00;101582.06;10455019;28;20056;-72
2023/11/26 09:07:27;;;;;;;0.50;0.50;;;;;;;7.23;100.00;101583.25;10453737;28;20123;-72
2023/11/26 09:12:27;;;;;;;0.65;0.65;;;;;;;7.35;100.00;101588.41;10454314;28;20032;-73
2023/11/26 09:17:28;;;;;;;0.68;0.68;;;;;;;7.40;100.00;101576.13;10454267;28;20036;-72
2023/11/26 09:22:30;;;;;;;1.75;1.75;;;;;;;7.45;100.00;101578.34;10453065;28;20092;-73
2023/11/26 09:27:30;;;;;;;0.50;0.50;;;;;;;7.49;100.00;101581.56;10454712;28;20041;-71
2023/11/26 09:32:31;;;;;;;0.50;0.50;;;;;;;7.49;100.00;101579.69;10456857;28;20094;-71
2023/11/26 09:37:32;;;;;;;0.50;0.50;;;;;;;7.49;100.00;101578.88;10463540;28;20041;-72
2023/11/26 09:42:32;;;;;;;0.50;0.50;;;;;;;7.50;100.00;101576.03;10463324;28;20099;-71
2023/11/26 09:47:33;;;;;;;1.17;1.17;;;;;;;7.53;100.00;101586.47;10444079;28;20040;-71
2023/11/26 09:52:33;;;;;;;0.60;0.60;;;;;;;7.59;100.00;101579.59;10462029;28;20033;-73
2023/11/26 09:57:35;;;;;;;0.50;0.50;;;;;;;7.76;100.00;101575.13;10461418;28;20380;-73
2023/11/26 10:02:35;;;;;;;0.50;0.50;;;;;;;7.85;100.00;101582.25;10459997;28;20380;-71
2023/11/26 10:07:36;;;;;;;0.50;0.50;;;;;;;7.89;100.00;101587.13;10461365;28;20124;-71
2023/11/26 10:12:51;;;;;;;0.50;0.50;;;;;;;7.99;100.00;101581.59;10443318;28;20433;-72
2023/11/26 10:18:05;;;;;;;0.40;0.40;;;;;;;8.02;100.00;101566.94;10460221;28;20523;-72
2023/11/26 10:23:07;;;;;;;0.40;0.40;;;;;;;8.03;100.00;101565.94;10459513;28;20106;-74
2023/11/26 10:28:15;;;;;;;0.50;0.50;;;;;;;7.95;100.00;101566.75;10459404;28;20126;-72
2023/11/26 10:33:16;;;;;;;0.45;0.45;;;;;;;7.93;100.00;101563.38;10463384;28;20063;-73
2023/11/26 10:38:17;;;;;;;0.50;0.50;;;;;;;7.97;100.00;101559.34;10443715;28;20150;-72
2023/11/26 10:43:17;;;;;;;31.23;2.47;;;;;;;8.02;100.00;101566.94;10462547;28;20108;-72
2023/11/26 10:48:18;;;;;;;1.90;1.80;;;;;;;8.02;100.00;101553.47;10464632;28;20079;-71
2023/11/26 10:53:46;;;;;;;0.50;0.50;;;;;;;8.03;100.00;101566.78;10464144;28;20125;-72
2023/11/26 10:58:48;;;;;;;0.63;0.63;;;;;;;7.87;100.00;101564.03;10459029;28;20041;-74
2023/11/26 11:03:49;;;;;;;0.95;0.95;;;;;;;7.67;100.00;101563.47;10459077;28;20033;-72
2023/11/26 11:08:49;;;;;;;0.60;0.60;;;;;;;7.57;100.00;101551.97;10457737;28;20036;-72
2023/11/26 11:13:50;;;;;;;0.45;0.45;;;;;;;7.55;100.00;101541.31;10456780;28;20040;-73
2023/11/26 11:18:50;;;;;;;0.50;0.50;;;;;;;7.57;100.00;101536.63;10440137;28;20143;-73
2023/11/26 11:23:53;;;;;;;0.65;0.65;;;;;;;7.62;100.00;101539.66;10457805;28;20080;-72
2023/11/26 11:28:54;;;;;;;0.50;0.50;;;;;;;7.79;100.00;101534.34;10440394;28;20037;-71
2023/11/26 11:34:01;;;;;;;0.50;0.50;;;;;;;7.90;100.00;101536.75;10457725;28;20029;-73
2023/11/26 11:39:04;;;;;;;0.70;0.70;;;;;;;7.80;100.00;101525.25;10457127;28;20108;-73
2023/11/26 11:44:30;;;;;;;0.50;0.50;;;;;;;7.81;100.00;101521.53;10456065;28;20029;-73
2023/11/26 11:49:45;;;;;;;0.40;0.40;;;;;;;7.83;100.00;101523.06;10426205;28;20083;-73
2023/11/26 11:54:58;;;;;;;0.40;0.40;;;;;;;7.91;100.00;101516.84;10459500;28;20338;-74
2023/11/26 12:00:03;;;;;;;0.40;0.40;;;;;;;7.97;100.00;101521.56;10455801;28;20029;-72
2023/11/26 12:05:04;;;;;;;0.40;0.40;;;;;;;8.07;100.00;101513.34;10455917;28;20104;-72
2023/11/26 12:10:05;;;;;;;0.43;0.43;;;;;;;8.09;100.00;101511.31;10421501;28;20494;-73
2023/11/26 12:15:07;;;;;;;0.40;0.40;;;;;;;8.04;100.00;101513.66;10453909;28;20044;-71
2023/11/26 12:20:10;;;;;;;0.40;0.40;;;;;;;8.00;100.00;101515.00;10454339;28;20380;-72
2023/11/26 12:25:11;;;;;;;0.40;0.40;;;;;;;7.83;100.00;101511.44;10456042;28;20419;-72
2023/11/26 12:30:13;;;;;;;0.30;0.30;;;;;;;7.70;100.00;101501.13;10454311;28;20241;-72
2023/11/26 12:35:13;;;;;;;0.77;0.77;;;;;;;7.74;100.00;101498.94;10437791;28;20441;-74
2023/11/26 12:40:14;;;;;;;0.50;0.50;;;;;;;7.75;100.00;101496.06;10436764;28;20033;-71
2023/11/26 12:45:16;;;;;;;0.45;0.45;;;;;;;7.66;100.00;101497.91;10436865;28;20551;-71
2023/11/26 12:50:17;;;;;;;0.40;0.40;;;;;;;7.53;100.00;101483.19;10453121;28;20051;-71
2023/11/26 12:55:18;;;;;;;0.50;0.50;;;;;;;7.49;100.00;101481.84;10454608;28;20044;-73
2023/11/26 13:00:19;;;;;;;2.35;2.25;;;;;;;7.50;100.00;101481.69;10453012;28;20114;-76
2023/11/26 13:05:28;;;;;;;0.40;0.40;;;;;;;7.44;100.00;101469.72;10454064;28;20036;-80
2023/11/26 13:10:42;;;;;;;0.40;0.40;;;;;;;7.49;100.00;101463.81;10452720;28;20048;-74
2023/11/26 13:15:42;;;;;;;0.47;0.47;;;;;;;7.50;100.00;101449.38;10454213;28;20055;-71
2023/11/26 13:20:47;;;;;;;0.50;0.50;;;;;;;7.57;100.00;101446.84;10454144;28;20054;-71
2023/11/26 13:25:51;;;;;;;0.87;0.87;;;;;;;7.60;100.00;101455.44;10455148;28;20460;-73
2023/11/26 13:30:52;;;;;;;1.30;1.30;;;;;;;7.57;100.00;101445.00;10454249;28;20120;-73
2023/11/26 13:35:54;;;;;;;0.50;0.50;;;;;;;7.55;100.00;101441.59;10451321;28;20468;-72
2023/11/26 13:40:54;;;;;;;0.40;0.40;;;;;;;7.51;100.00;101434.03;10453764;28;20119;-71
2023/11/26 13:45:55;;;;;;;0.40;0.40;;;;;;;7.48;100.00;101423.59;10454753;28;20037;-71
2023/11/26 13:50:55;;;;;;;0.40;0.40;;;;;;;7.43;100.00;101429.44;10453446;28;20033;-72
2023/11/26 13:55:56;;;;;;;0.45;0.45;;;;;;;7.38;100.00;101442.59;10451605;28;20412;-71
2023/11/26 14:00:56;;;;;;;0.65;0.65;;;;;;;7.38;100.00;101439.88;10454616;28;20044;-73
2023/11/26 14:05:57;;;;;;;0.50;0.50;;;;;;;7.31;100.00;101430.78;10454499;28;20346;-73
2023/11/26 14:10:57;;;;;;;0.50;0.50;;;;;;;7.26;100.00;101438.50;10452104;28;20484;-71
2023/11/26 14:15:57;;;;;;;0.50;0.50;;;;;;;7.25;100.00;101434.13;10453388;28;20063;-72
2023/11/26 14:20:58;;;;;;;0.40;0.40;;;;;;;7.21;100.00;101433.56;10454086;28;20025;-71
2023/11/26 14:25:58;;;;;;;0.40;0.40;;;;;;;7.20;100.00;101432.72;10461218;28;20045;-71
2023/11/26 14:30:59;;;;;;;0.40;0.40;;;;;;;7.19;100.00;101431.06;10462231;28;20041;-71
2023/11/26 14:36:00;;;;;;;2.83;1.77;;;;;;;7.17;100.00;101429.53;10463408;28;20038;-70
2023/11/26 14:41:00;;;;;;;0.40;0.40;;;;;;;7.17;100.00;101426.84;10461714;28;20033;-70
2023/11/26 14:46:01;;;;;;;0.50;0.50;;;;;;;7.17;100.00;101419.59;10461371;28;20068;-71
2023/11/26 14:51:01;;;;;;;0.60;0.60;;;;;;;7.14;100.00;101406.44;10459854;28;20051;-73
2023/11/26 14:56:05;;;;;;;0.50;0.50;;;;;;;7.11;100.00;101406.78;10458785;28;20125;-72
2023/11/26 15:01:06;;;;;;;0.50;0.50;;;;;;;7.08;100.00;101399.00;10459001;28;20083;-73
2023/11/26 15:06:07;;;;;;;8.93;4.32;;;;;;;7.03;100.00;101387.91;10459056;28;20104;-71
2023/11/26 15:11:07;;;;;;;1.92;1.83;;;;;;;7.01;100.00;101383.69;10458489;28;20388;-71
2023/11/26 15:16:10;;;;;;;2.00;1.98;;;;;;;6.96;100.00;101379.63;10461424;28;20430;-72
2023/11/26 15:21:11;;;;;;;0.68;0.68;;;;;;;6.94;100.00;101383.50;10458540;28;20081;-72
2023/11/26 15:26:18;;;;;;;0.80;0.80;;;;;;;6.91;100.00;101383.81;10441221;28;20055;-71
2023/11/26 15:31:19;;;;;;;0.47;0.47;;;;;;;6.89;100.00;101377.72;10457771;28;20032;-72
2023/11/26 15:36:19;;;;;;;0.95;0.95;;;;;;;6.91;100.00;101367.66;10457608;28;20385;-73
2023/11/26 15:41:21;;;;;;;0.50;0.50;;;;;;;6.88;100.00;101370.69;10456881;28;20443;-74
2023/11/26 15:46:23;;;;;;;13.18;3.42;;;;;;;6.86;100.00;101367.28;10456382;28;20082;-72
2023/11/26 15:51:24;;;;;;;7.47;3.33;;;;;;;6.83;100.00;101364.91;10455870;28;20032;-71
2023/11/26 15:56:24;;;;;;;7.15;4.05;;;;;;;6.83;100.00;101359.53;10456408;28;20036;-72
2023/11/26 16:01:26;;;;;;;4.00;3.22;;;;;;;6.81;100.00;101361.56;10458461;28;20033;-71
2023/11/26 16:06:30;;;;;;;11.35;4.95;;;;;;;6.75;100.00;101342.34;10457493;28;20044;-71
2023/11/26 16:11:30;;;;;;;13.13;4.22;;;;;;;6.77;100.00;101346.75;10438535;28;20039;-70
2023/11/26 16:16:31;;;;;;;3.35;3.15;;;;;;;6.71;100.00;101334.78;10438851;28;20348;-73
2023/11/26 16:21:33;;;;;;;6.28;4.18;;;;;;;6.76;100.00;101340.50;10457437;28;20107;-72
2023/11/26 16:26:37;;;;;;;7.43;3.60;;;;;;;6.75;100.00;101318.13;10455663;28;20112;-72
2023/11/26 16:31:41;;;;;;;8.60;4.35;;;;;;;6.81;100.00;101313.13;10438081;28;20406;-72
2023/11/26 16:36:41;;;;;;;5.13;3.92;;;;;;;6.90;100.00;101309.44;10457258;28;20047;-71
2023/11/26 16:41:42;;;;;;;10.25;3.03;;;;;;;6.99;100.00;101311.16;10456146;28;20036;-71
2023/11/26 16:46:42;;;;;;;6.05;3.50;;;;;;;7.02;100.00;101305.44;10454863;28;20044;-71
2023/11/26 16:51:46;;;;;;;6.93;3.33;;;;;;;7.09;100.00;101309.16;10455890;28;20033;-71
2023/11/26 16:56:46;;;;;;;5.93;4.32;;;;;;;7.04;100.00;101305.28;10453331;28;20433;-71
2023/11/26 17:01:47;;;;;;;11.95;4.25;;;;;;;6.99;100.00;101300.38;10454619;28;20057;-71
2023/11/26 17:06:47;;;;;;;5.72;3.47;;;;;;;6.98;100.00;101298.69;10455184;28;20033;-71
2023/11/26 17:11:48;;;;;;;13.75;3.25;;;;;;;6.91;100.00;101290.41;10454056;28;20112;-71
2023/11/26 17:16:49;;;;;;;10.13;3.22;;;;;;;6.87;100.00;101285.53;10453846;28;20111;-71
2023/11/26 17:21:49;;;;;;;8.70;3.33;;;;;;;6.82;100.00;101269.88;10451764;28;20049;-70
2023/11/26 17:26:49;;;;;;;10.43;3.95;;;;;;;6.76;100.00;101270.50;10452543;28;20428;-71
2023/11/26 17:31:50;;;;;;;5.85;3.22;;;;;;;6.75;100.00;101272.38;10453035;28;20054;-70
2023/11/26 17:36:50;;;;;;;6.07;2.17;;;;;;;6.73;100.00;101273.53;10452448;28;20095;-71
2023/11/26 17:41:51;;;;;;;1.95;1.80;;;;;;;6.66;100.00;101278.72;10452633;28;20040;-70
2023/11/26 17:46:54;;;;;;;6.97;3.88;;;;;;;6.69;100.00;101278.41;10452880;28;20134;-71
2023/11/26 17:51:55;;;;;;;4.35;3.95;;;;;;;6.61;100.00;101262.25;10453614;28;20029;-72
2023/11/26 17:56:56;;;;;;;11.85;4.43;;;;;;;6.57;100.00;101268.09;10455020;28;20033;-72
2023/11/26 18:01:56;;;;;;;7.45;5.45;;;;;;;6.51;100.00;101254.31;10461851;28;20025;-72
2023/11/26 18:06:56;;;;;;;10.77;6.50;;;;;;;6.46;100.00;101263.88;10460751;28;20052;-71
2023/11/26 18:11:57;;;;;;;26.92;8.43;;;;;;;6.38;100.00;101253.91;10461522;28;20486;-71
2023/11/26 18:17:01;;;;;;;21.05;8.77;;;;;;;6.35;100.00;101242.63;10460003;28;20103;-71
2023/11/26 18:22:02;;;;;;;14.73;7.25;;;;;;;6.22;100.00;101238.56;10459799;28;20463;-71
2023/11/26 18:27:03;;;;;;;17.10;8.27;;;;;;;6.26;100.00;101234.53;10461623;28;20033;-70
2023/11/26 18:32:03;;;;;;;15.80;8.18;;;;;;;6.19;100.00;101238.00;10461173;28;20033;-72
2023/11/26 18:37:04;;;;;;;14.73;8.27;;;;;;;6.13;100.00;101226.06;10460357;28;20067;-72
2023/11/26 18:42:05;;;;;;;16.85;8.40;;;;;;;6.18;100.00;101231.78;10460717;28;20033;-72
2023/11/26 18:47:06;;;;;;;13.63;6.20;;;;;;;6.18;100.00;101220.19;10460974;28;20025;-72
2023/11/26 18:52:11;;;;;;;11.82;8.68;;;;;;;6.15;100.00;101215.97;10461014;28;20414;-71
2023/11/26 18:57:12;;;;;;;19.67;8.40;;;;;;;6.02;100.00;101207.50;10448792;28;20036;-71
2023/11/26 19:02:18;;;;;;;24.45;8.45;;;;;;;6.03;100.00;101201.13;10468051;28;20116;-71
2023/11/26 19:07:19;;;;;;;13.48;9.55;;;;;;;6.15;100.00;101186.41;10466627;28;20057;-70
2023/11/26 19:12:19;;;;;;;16.00;8.75;;;;;;;6.14;100.00;101186.56;10465008;28;20044;-70
2023/11/26 19:17:20;;;;;;;21.48;10.57;;;;;;;6.16;100.00;101184.53;10474219;28;20367;-72
2023/11/26 19:22:20;;;;;;;18.45;9.82;;;;;;;6.27;100.00;101178.88;10466499;28;20473;-70
2023/11/26 19:27:20;;;;;;;20.58;12.07;;;;;;;6.31;100.00;101174.03;10458037;28;20037;-72
2023/11/26 19:32:21;;;;;;;14.02;10.32;;;;;;;6.28;100.00;101173.34;10459581;28;20385;-71
2023/11/26 19:37:22;;;;;;;21.20;12.43;;;;;;;6.27;100.00;101160.06;10457280;28;20433;-70
2023/11/26 19:42:23;;;;;;;20.75;10.18;;;;;;;6.23;100.00;101164.94;10455908;28;20448;-70
2023/11/26 19:47:23;;;;;;;11.13;9.75;;;;;;;6.22;100.00;101155.19;10439572;28;20024;-70
2023/11/26 19:52:24;;;;;;;19.63;12.15;;;;;;;6.27;100.00;101149.31;10456352;28;20151;-70
2023/11/26 19:57:24;;;;;;;17.30;11.45;;;;;;;6.23;100.00;101139.88;10457144;28;20035;-70
2023/11/26 20:02:25;;;;;;;10.57;8.88;;;;;;;6.31;100.00;101139.06;10456091;28;20042;-71
2023/11/26 20:07:25;;;;;;;16.15;11.02;;;;;;;6.35;100.00;101146.66;10438634;28;20090;-70
2023/11/26 20:12:26;;;;;;;15.98;12.00;;;;;;;6.19;100.00;101120.56;10456300;28;20112;-70
2023/11/26 20:17:29;;;;;;;14.77;11.95;;;;;;;6.33;100.00;101123.63;10454799;28;20417;-70
2023/11/26 20:22:30;;;;;;;17.27;10.85;;;;;;;6.40;100.00;101116.56;10454773;28;20375;-70
2023/11/26 20:27:31;;;;;;;17.13;10.85;;;;;;;6.31;100.00;101112.16;10454732;28;20029;-70
2023/11/26 20:32:33;;;;;;;14.70;11.13;;;;;;;6.17;100.00;101101.03;10455784;28;20056;-70
2023/11/26 20:37:33;;;;;;;14.90;12.48;;;;;;;6.11;100.00;101093.63;10455685;28;20036;-70
2023/11/26 20:42:34;;;;;;;12.98;11.40;;;;;;;6.09;100.00;101084.88;10455437;28;20051;-70
2023/11/26 20:47:34;;;;;;;22.80;12.55;;;;;;;6.04;100.00;101089.91;10455137;28;20055;-70
2023/11/26 20:52:35;;;;;;;12.40;11.23;;;;;;;5.94;100.00;101070.41;10455611;28;20081;-71
2023/11/26 20:57:36;;;;;;;19.73;13.32;;;;;;;5.99;100.00;101066.19;10437244;28;20094;-70
2023/11/26 21:02:37;;;;;;;21.10;14.88;;;;;;;6.00;100.00;101059.00;10437275;28;20200;-70
2023/11/26 21:07:37;;;;;;;24.83;15.70;;;;;;;5.99;100.00;101055.44;10437557;28;20061;-70
2023/11/26 21:12:38;;;;;;;23.02;16.80;;;;;;;5.94;100.00;101052.44;10453576;28;20025;-70
2023/11/26 21:17:38;;;;;;;19.88;17.25;;;;;;;5.96;100.00;101044.19;10451515;28;20118;-70
2023/11/26 21:22:39;;;;;;;25.42;19.55;;;;;;;6.00;100.00;101040.19;10453007;28;20109;-71
2023/11/26 21:27:40;;;;;;;22.17;17.92;;;;;;;6.01;100.00;101040.00;10452761;28;20139;-71
2023/11/26 21:32:40;;;;;;;23.55;19.45;;;;;;;6.06;100.00;101023.38;10451352;28;20171;-71
2023/11/26 21:37:41;;;;;;;30.65;17.35;;;;;;;6.07;100.00;101014.31;10452295;28;20037;-71
2023/11/26 21:42:41;;;;;;;25.38;21.02;;;;;;;6.12;100.00;101013.81;10453224;28;20121;-71
2023/11/26 21:47:42;;;;;;;28.23;20.75;;;;;;;6.13;100.00;101002.91;10453581;28;20065;-71
2023/11/26 21:52:42;;;;;;;27.83;18.77;;;;;;;6.08;100.00;100999.84;10452618;28;20064;-71
2023/11/26 21:57:43;;;;;;;31.50;24.27;;;;;;;6.08;100.00;100994.47;10434913;28;20163;-71
2023/11/26 22:02:43;;;;;;;35.55;24.75;;;;;;;6.09;100.00;100984.56;10451117;28;20033;-71
2023/11/26 22:07:44;;;;;;;28.25;20.25;;;;;;;6.12;100.00;100968.09;10450986;28;20459;-71
2023/11/26 22:12:45;;;;;;;15.90;14.32;;;;;;;6.05;100.00;100958.00;10452146;28;20512;-71
2023/11/26 22:17:45;;;;;;;22.88;18.38;;;;;;;6.05;100.00;100949.94;10452066;28;20110;-71
2023/11/26 22:22:46;;;;;;;23.60;17.80;;;;;;;6.07;100.00;100941.72;10451238;28;20420;-71
2023/11/26 22:27:47;;;;;;;26.40;16.17;;;;;;;6.14;100.00;100947.28;10451824;28;20129;-70
2023/11/26 22:32:47;;;;;;;33.05;18.52;;;;;;;6.09;100.00;100931.63;10433755;28;20033;-71
2023/11/26 22:37:48;;;;;;;20.02;17.90;;;;;;;6.11;100.00;100921.56;10450139;28;20396;-71
2023/11/26 22:42:48;;;;;;;19.20;17.13;;;;;;;6.01;100.00;100923.56;10452176;28;20072;-71
2023/11/26 22:47:49;;;;;;;22.42;18.40;;;;;;;6.03;100.00;100925.09;10456332;28;20044;-71
2023/11/26 22:52:49;;;;;;;22.42;18.45;;;;;;;6.02;100.00;100917.19;10460111;28;20057;-71
2023/11/26 22:57:50;;;;;;;17.70;15.80;;;;;;;6.11;100.00;100902.75;10461846;28;20040;-71
2023/11/26 23:02:50;;;;;;;1.00;1.00;;;;;;;6.00;100.00;100893.19;10457508;28;20036;-72